Time;durP1;ratioP1;P1;durP2;ratioP2;P2;SDS_P1;SDS_P2;PMS_P1;PMS_P2;Temp;Humidity;BMP_temperature;BMP_pressure;BME280_temperature;BME280_humidity;BME280_pressure;Samples;Min_cycle;Max_cycle;Signal;HPM_P1;HPM_P2
2021/02/22 00:01:16;;;;;;;;;93.00;68.75;;;;;-3.67;86.88;102399.94;3725341;37;17905;-56
2021/02/22 00:03:43;;;;;;;;;126.75;90.25;;;;;-3.69;86.95;102383.22;3725588;37;17869;-56
2021/02/22 00:06:10;;;;;;;;;109.25;86.25;;;;;-3.64;86.75;102377.78;3725430;37;17899;-56
2021/02/22 00:08:38;;;;;;;;;107.00;84.75;;;;;-3.70;86.81;102378.84;3725699;37;17880;-56
2021/02/22 00:11:05;;;;;;;;;111.25;84.50;;;;;-3.62;86.93;102386.53;3725730;37;17870;-56
2021/02/22 00:13:32;;;;;;;;;118.50;94.25;;;;;-3.62;86.75;102378.59;3725716;37;17856;-56
2021/02/22 00:15:59;;;;;;;;;100.00;73.25;;;;;-3.67;86.66;102386.69;3725632;37;17886;-56
2021/02/22 00:18:28;;;;;;;;;110.00;76.75;;;;;-3.75;86.54;102378.13;3725762;38;17839;-56
2021/02/22 00:20:54;;;;;;;;;109.00;78.00;;;;;-3.75;86.62;102375.47;3725674;37;17859;-55
2021/02/22 00:23:20;;;;;;;;;121.50;91.00;;;;;-3.80;86.45;102377.41;3725733;38;17839;-56
2021/02/22 00:25:47;;;;;;;;;128.00;94.00;;;;;-3.81;86.51;102378.31;3725995;37;17870;-55
2021/02/22 00:28:14;;;;;;;;;104.50;75.00;;;;;-3.90;86.68;102371.53;3725671;37;17849;-56
2021/02/22 00:30:40;;;;;;;;;108.25;75.25;;;;;-3.86;86.64;102369.66;3725692;38;17832;-55
2021/02/22 00:33:08;;;;;;;;;106.25;75.25;;;;;-3.80;86.97;102370.34;3725870;38;17825;-56
2021/02/22 00:35:37;;;;;;;;;105.50;82.25;;;;;-3.76;86.87;102371.09;3725507;38;17841;-56
2021/02/22 00:38:03;;;;;;;;;114.00;88.25;;;;;-3.80;86.88;102370.34;3725512;37;17846;-56
2021/02/22 00:40:31;;;;;;;;;112.75;81.50;;;;;-3.83;86.66;102364.28;3725498;38;17819;-55
2021/02/22 00:42:58;;;;;;;;;110.75;84.00;;;;;-3.92;86.61;102362.78;3725520;38;17822;-56
2021/02/22 00:45:31;;;;;;;;;110.75;82.50;;;;;-3.94;86.58;102366.38;3725366;38;17823;-56
2021/02/22 00:47:58;;;;;;;;;109.50;88.00;;;;;-3.90;86.69;102365.37;3725505;37;17803;-56
2021/02/22 00:50:25;;;;;;;;;115.00;87.25;;;;;-4.03;86.59;102355.16;3725446;38;17827;-56
2021/02/22 00:52:53;;;;;;;;;103.00;79.25;;;;;-3.94;86.62;102361.94;3725333;37;17812;-56
2021/02/22 00:55:21;;;;;;;;;113.00;84.25;;;;;-3.98;86.69;102355.03;3725726;37;17822;-56
2021/02/22 00:57:48;;;;;;;;;104.50;72.50;;;;;-4.10;86.38;102350.97;3725078;38;17803;-56
2021/02/22 01:00:23;;;;;;;;;95.25;72.00;;;;;-4.24;86.27;102333.81;3725071;37;17815;-57
2021/02/22 01:02:49;;;;;;;;;107.25;78.50;;;;;-4.21;86.33;102355.72;3725129;38;17803;-56
2021/02/22 01:05:18;;;;;;;;;111.00;79.25;;;;;-4.20;86.75;102356.59;3725586;37;17794;-56
2021/02/22 01:07:46;;;;;;;;;109.50;82.75;;;;;-4.26;86.59;102349.72;3725554;37;17776;-57
2021/02/22 01:10:15;;;;;;;;;106.75;74.25;;;;;-4.28;86.82;102353.31;3725253;37;17890;-56
2021/02/22 01:12:41;;;;;;;;;107.50;80.00;;;;;-4.31;86.76;102359.56;3725640;38;17781;-56
2021/02/22 01:15:12;;;;;;;;;115.00;80.25;;;;;-4.32;86.50;102362.25;3725866;37;17803;-56
2021/02/22 01:17:38;;;;;;;;;96.00;68.00;;;;;-4.42;86.73;102353.72;3725468;37;17774;-56
2021/02/22 01:20:08;;;;;;;;;107.00;78.00;;;;;-4.40;86.70;102363.31;3725607;38;17775;-55
2021/02/22 01:22:36;;;;;;;;;111.50;85.50;;;;;-4.32;86.96;102356.97;3725259;37;17783;-54
2021/02/22 01:25:05;;;;;;;;;101.75;76.50;;;;;-4.31;87.07;102353.41;3725306;37;17785;-57
2021/02/22 01:27:33;;;;;;;;;108.50;80.00;;;;;-4.33;86.97;102356.09;3725516;38;17783;-56
2021/02/22 01:30:03;;;;;;;;;115.00;85.75;;;;;-4.42;86.91;102361.63;3725276;38;17783;-57
2021/02/22 01:32:29;;;;;;;;;114.50;87.75;;;;;-4.48;86.94;102359.16;3725306;37;17773;-56
2021/02/22 01:34:55;;;;;;;;;100.50;79.00;;;;;-4.50;86.68;102367.12;3725324;37;17761;-57
2021/02/22 01:37:25;;;;;;;;;103.25;75.25;;;;;-4.48;86.91;102365.31;3725556;37;17774;-57
2021/02/22 01:39:57;;;;;;;;;127.75;96.75;;;;;-4.44;86.91;102358.16;3725534;37;17769;-57
2021/02/22 01:42:27;;;;;;;;;94.50;71.00;;;;;-4.41;87.25;102363.38;3725594;37;17736;-57
2021/02/22 01:44:55;;;;;;;;;118.00;95.50;;;;;-4.44;87.22;102368.75;3725408;37;17756;-57
2021/02/22 01:47:22;;;;;;;;;111.00;80.00;;;;;-4.42;87.25;102370.44;3725748;38;17749;-56
2021/02/22 01:49:49;;;;;;;;;116.75;88.25;;;;;-4.38;87.27;102369.44;3725597;38;17751;-56
2021/02/22 01:52:16;;;;;;;;;108.25;80.75;;;;;-4.38;86.95;102365.94;3725750;37;17720;-57
2021/02/22 01:54:42;;;;;;;;;107.25;81.50;;;;;-4.44;87.09;102371.38;3725607;37;17756;-57
2021/02/22 01:57:08;;;;;;;;;107.25;73.25;;;;;-4.51;87.08;102362.75;3725333;38;17745;-57
2021/02/22 01:59:35;;;;;;;;;115.75;84.25;;;;;-4.52;87.12;102374.25;3725525;37;17743;-57
2021/02/22 02:02:02;;;;;;;;;108.25;82.75;;;;;-4.51;86.91;102369.81;3725634;37;17740;-57
2021/02/22 02:04:29;;;;;;;;;112.25;80.25;;;;;-4.44;87.28;102366.09;3725682;37;17734;-58
2021/02/22 02:06:55;;;;;;;;;114.50;91.75;;;;;-4.43;87.29;102375.75;3725636;37;17707;-58
2021/02/22 02:09:22;;;;;;;;;111.50;83.50;;;;;-4.45;86.98;102378.44;3725549;38;17739;-57
2021/02/22 02:11:48;;;;;;;;;107.75;79.25;;;;;-4.46;87.17;102379.34;3725383;38;17702;-56
2021/02/22 02:14:14;;;;;;;;;100.25;77.00;;;;;-4.44;87.30;102382.81;3725665;37;17704;-57
2021/02/22 02:16:41;;;;;;;;;114.50;89.00;;;;;-4.48;87.22;102382.94;3725796;37;17694;-56
2021/02/22 02:19:09;;;;;;;;;111.75;83.25;;;;;-4.57;86.81;102392.00;3725511;37;17722;-57
2021/02/22 02:21:37;;;;;;;;;109.00;80.25;;;;;-4.52;86.88;102389.22;3725215;37;17683;-55
2021/02/22 02:24:04;;;;;;;;;103.00;77.25;;;;;-4.41;87.36;102390.66;3725752;38;17694;-55
2021/02/22 02:26:30;;;;;;;;;114.25;82.50;;;;;-4.37;87.17;102394.94;3725425;38;17683;-56
2021/02/22 02:28:58;;;;;;;;;108.00;77.50;;;;;-4.35;87.26;102393.13;3725763;37;17692;-56
2021/02/22 02:31:27;;;;;;;;;108.75;79.00;;;;;-4.32;86.94;102402.75;3725254;37;17677;-55
2021/02/22 02:33:54;;;;;;;;;114.50;84.25;;;;;-4.34;86.96;102392.22;3725706;37;17688;-56
2021/02/22 02:36:21;;;;;;;;;104.75;74.50;;;;;-4.32;86.96;102399.25;3725495;38;17690;-57
2021/02/22 02:38:47;;;;;;;;;106.25;77.25;;;;;-4.34;87.05;102400.16;3725659;38;17694;-56
2021/02/22 02:41:15;;;;;;;;;127.25;91.75;;;;;-4.27;87.13;102399.97;3725262;37;17650;-57
2021/02/22 02:43:41;;;;;;;;;111.00;84.50;;;;;-4.21;87.07;102405.97;3725738;38;17665;-56
2021/02/22 02:46:07;;;;;;;;;107.50;76.50;;;;;-4.20;87.39;102401.53;3725755;38;17669;-57
2021/02/22 02:48:34;;;;;;;;;109.00;82.50;;;;;-4.10;87.45;102408.28;3725757;38;17660;-55
2021/02/22 02:51:00;;;;;;;;;112.25;80.25;;;;;-4.02;87.16;102407.13;3725567;38;17650;-56
2021/02/22 02:53:28;;;;;;;;;115.50;83.50;;;;;-3.98;87.27;102407.91;3725681;38;17666;-57
2021/02/22 02:55:54;;;;;;;;;103.75;75.25;;;;;-3.92;87.48;102410.38;3725789;38;17663;-57
2021/02/22 02:58:22;;;;;;;;;117.75;83.25;;;;;-3.86;87.51;102406.69;3725838;38;17655;-56
2021/02/22 03:00:48;;;;;;;;;103.50;80.25;;;;;-3.85;87.46;102414.56;3725716;38;17625;-55
2021/02/22 03:03:19;;;;;;;;;113.75;85.50;;;;;-3.76;87.22;102416.06;3725720;38;17662;-56
2021/02/22 03:05:46;;;;;;;;;109.25;78.75;;;;;-3.75;87.42;102417.81;3725611;37;17645;-56
2021/02/22 03:08:13;;;;;;;;;101.75;75.00;;;;;-3.70;87.32;102418.53;3725461;37;17638;-56
2021/02/22 03:10:40;;;;;;;;;115.25;87.50;;;;;-3.59;87.37;102413.75;3725276;38;17639;-56
2021/02/22 03:13:11;;;;;;;;;107.50;78.75;;;;;-3.48;87.49;102413.41;3725603;38;17631;-56
2021/02/22 03:15:37;;;;;;;;;112.25;80.00;;;;;-3.39;87.16;102419.28;3725386;37;17625;-55
2021/02/22 03:18:04;;;;;;;;;114.25;86.00;;;;;-3.36;87.36;102420.97;3725613;37;17629;-57
2021/02/22 03:20:31;;;;;;;;;115.75;79.50;;;;;-3.29;87.19;102426.94;3725412;37;17623;-56
2021/02/22 03:22:59;;;;;;;;;109.00;80.75;;;;;-3.29;87.18;102416.34;3725584;38;17637;-57
2021/02/22 03:25:26;;;;;;;;;110.75;85.50;;;;;-3.28;86.95;102418.94;3725131;37;17637;-56
2021/02/22 03:27:54;;;;;;;;;107.75;77.50;;;;;-3.24;87.02;102425.88;3725232;37;17607;-57
2021/02/22 03:30:23;;;;;;;;;109.50;87.00;;;;;-3.22;86.92;102424.06;3725566;38;17615;-56
2021/02/22 03:32:50;;;;;;;;;116.50;81.50;;;;;-3.17;87.15;102418.59;3725481;38;18602;-58
2021/02/22 03:35:23;;;;;;;;;110.75;89.25;;;;;-3.13;87.22;102421.09;3725588;37;18609;-57
2021/02/22 03:37:49;;;;;;;;;113.00;87.25;;;;;-3.14;86.91;102413.22;3725669;38;17615;-57
2021/02/22 03:40:20;;;;;;;;;110.50;88.00;;;;;-3.09;87.08;102409.47;3725487;37;18596;-59
2021/02/22 03:42:47;;;;;;;;;108.00;82.75;;;;;-2.99;87.08;102410.03;3725600;38;18594;-57
2021/02/22 03:45:19;;;;;;;;;109.50;84.25;;;;;-3.00;87.12;102406.50;3725771;38;18587;-56
2021/02/22 03:47:45;;;;;;;;;109.75;81.75;;;;;-2.96;86.83;102404.62;3725859;37;17614;-58
2021/02/22 03:50:12;;;;;;;;;115.25;88.75;;;;;-2.91;86.92;102405.34;3725233;38;18580;-57
2021/02/22 03:52:39;;;;;;;;;110.00;78.00;;;;;-2.86;87.06;102395.44;3725619;37;18582;-57
2021/02/22 03:55:07;;;;;;;;;108.75;88.50;;;;;-2.85;86.75;102398.97;3725755;37;18563;-57
2021/02/22 03:57:40;;;;;;;;;115.25;92.75;;;;;-2.86;86.77;102398.09;3725642;37;18591;-57
2021/02/22 04:00:10;;;;;;;;;104.75;75.25;;;;;-2.83;86.81;102402.44;3725696;38;18579;-56
2021/02/22 04:02:37;;;;;;;;;100.50;65.25;;;;;-2.79;86.86;102398.75;3725606;37;18588;-56
2021/02/22 04:05:06;;;;;;;;;118.25;90.50;;;;;-2.74;87.13;102402.97;3725723;38;18578;-57
2021/02/22 04:07:32;;;;;;;;;110.75;85.25;;;;;-2.69;86.81;102406.34;3725753;37;18587;-58
2021/02/22 04:09:59;;;;;;;;;108.00;86.00;;;;;-2.68;86.96;102404.56;3725624;38;18555;-56
2021/02/22 04:12:26;;;;;;;;;108.75;77.75;;;;;-2.65;86.88;102406.22;3725202;37;18564;-58
2021/02/22 04:14:53;;;;;;;;;107.75;80.25;;;;;-2.56;87.25;102400.56;3725322;37;18560;-56
2021/02/22 04:17:22;;;;;;;;;111.00;85.75;;;;;-2.49;87.14;102397.66;3725701;38;18566;-55
2021/02/22 04:19:48;;;;;;;;;100.25;73.00;;;;;-2.54;87.18;102390.78;3725184;37;18555;-55
2021/02/22 04:22:15;;;;;;;;;100.00;74.50;;;;;-2.48;87.42;102394.09;3725427;38;18525;-56
2021/02/22 04:24:41;;;;;;;;;100.00;72.25;;;;;-2.46;87.13;102400.19;3725359;38;18534;-55
2021/02/22 04:27:07;;;;;;;;;102.00;71.00;;;;;-2.44;87.27;102394.84;3725462;38;18530;-55
2021/02/22 04:29:33;;;;;;;;;111.50;81.75;;;;;-2.41;87.52;102398.25;3725604;37;18515;-56
2021/02/22 04:31:59;;;;;;;;;99.75;71.00;;;;;-2.40;87.40;102392.03;3725674;37;18525;-55
2021/02/22 04:34:26;;;;;;;;;103.75;71.75;;;;;-2.40;87.28;102392.03;3725637;37;18517;-54
2021/02/22 04:36:52;;;;;;;;;97.00;71.50;;;;;-2.42;87.29;102383.25;3725748;37;18521;-56
2021/02/22 04:39:18;;;;;;;;;102.00;72.25;;;;;-2.41;87.42;102395.59;3725633;38;18528;-56
2021/02/22 04:41:44;;;;;;;;;103.50;74.50;;;;;-2.41;87.49;102394.72;3725660;37;18515;-54
2021/02/22 04:44:12;;;;;;;;;101.75;72.25;;;;;-2.47;87.77;102387.00;3725562;38;18485;-56
2021/02/22 04:46:38;;;;;;;;;102.00;74.00;;;;;-2.46;87.55;102392.25;3726037;38;18509;-56
2021/02/22 04:49:05;;;;;;;;;109.25;85.25;;;;;-2.48;87.90;102396.72;3725906;37;18517;-55
2021/02/22 04:51:31;;;;;;;;;79.50;65.00;;;;;-2.42;87.93;102407.13;3725726;37;18486;-56
2021/02/22 04:53:58;;;;;;;;;105.50;77.50;;;;;-2.37;87.87;102404.31;3725726;37;18505;-55
2021/02/22 04:56:25;;;;;;;;;123.75;93.25;;;;;-2.35;88.02;102416.59;3725516;38;18492;-56
2021/02/22 04:58:53;;;;;;;;;110.50;80.50;;;;;-2.36;87.81;102414.84;3725650;38;18482;-55
2021/02/22 05:01:19;;;;;;;;;104.75;74.25;;;;;-2.34;87.79;102415.66;3725626;37;18478;-56
2021/02/22 05:03:46;;;;;;;;;105.50;80.00;;;;;-2.45;88.08;102417.84;3725671;37;18493;-56
2021/02/22 05:06:12;;;;;;;;;102.25;74.50;;;;;-2.52;87.65;102423.41;3725293;37;18470;-56
2021/02/22 05:08:38;;;;;;;;;107.25;75.50;;;;;-2.54;88.05;102431.41;3725863;38;18476;-56
2021/02/22 05:11:04;;;;;;;;;103.00;72.50;;;;;-2.65;87.83;102432.72;3725762;38;18486;-56
2021/02/22 05:13:33;;;;;;;;;89.25;65.00;;;;;-2.67;88.18;102424.84;3725801;37;18477;-56
2021/02/22 05:16:03;;;;;;;;;87.50;64.25;;;;;-2.65;88.16;102427.44;3725653;38;18454;-56
2021/02/22 05:18:35;;;;;;;;;96.00;72.25;;;;;-2.70;88.17;102419.63;3725745;37;18467;-56
2021/02/22 05:21:02;;;;;;;;;95.25;70.25;;;;;-2.65;88.13;102430.09;3725856;37;18448;-59
2021/02/22 05:23:33;;;;;;;;;103.50;72.75;;;;;-2.63;88.17;102434.41;3726137;37;18437;-56
2021/02/22 05:25:59;;;;;;;;;98.25;72.25;;;;;-2.65;88.07;102443.34;3725528;37;18446;-57
2021/02/22 05:28:25;;;;;;;;;101.50;74.00;;;;;-2.62;88.39;102437.94;3728162;37;18452;-60
2021/02/22 05:30:51;;;;;;;;;107.00;72.75;;;;;-2.62;88.41;102441.44;3727653;38;18436;-55
2021/02/22 05:33:18;;;;;;;;;95.50;72.75;;;;;-2.62;88.17;102445.88;3727862;37;18422;-56
2021/02/22 05:35:44;;;;;;;;;95.00;66.75;;;;;-2.71;88.32;102442.63;3729443;38;18437;-56
2021/02/22 05:38:10;;;;;;;;;93.75;69.00;;;;;-2.72;88.12;102443.53;3730172;38;18427;-56
2021/02/22 05:40:37;;;;;;;;;89.25;65.25;;;;;-2.73;88.40;102438.28;3729431;37;18437;-55
2021/02/22 05:43:05;;;;;;;;;88.25;63.25;;;;;-2.77;88.43;102450.78;3727493;37;18427;-56
2021/02/22 05:45:31;;;;;;;;;88.00;65.75;;;;;-2.73;88.50;102459.50;3726156;37;18444;-56
2021/02/22 05:47:58;;;;;;;;;90.50;66.00;;;;;-2.69;88.28;102454.03;3725923;38;18433;-57
2021/02/22 05:50:25;;;;;;;;;91.75;68.50;;;;;-2.71;88.64;102462.97;3725847;37;18415;-57
2021/02/22 05:52:54;;;;;;;;;87.00;66.00;;;;;-2.77;88.30;102466.69;3725898;38;18419;-57
2021/02/22 05:55:21;;;;;;;;;87.75;65.75;;;;;-2.90;88.75;102465.34;3725596;38;18428;-56
2021/02/22 05:57:50;;;;;;;;;87.50;70.00;;;;;-2.93;88.63;102465.44;3725825;37;18394;-56
2021/02/22 06:00:38;;;;;;;;;98.50;70.75;;;;;-2.80;88.84;102473.84;3725330;38;18398;-56
2021/02/22 06:03:10;;;;;;;;;93.75;66.75;;;;;-2.76;88.61;102478.16;3725748;37;18366;-57
2021/02/22 06:05:37;;;;;;;;;99.75;71.25;;;;;-2.69;88.98;102479.69;3725887;37;18395;-56
2021/02/22 06:08:17;;;;;;;;;103.75;74.25;;;;;-2.60;88.68;102478.50;3725274;38;18376;-56
2021/02/22 06:11:13;;;;;;;;;101.75;68.25;;;;;-2.59;89.05;102464.28;3725929;38;18407;-56
2021/02/22 06:14:08;;;;;;;;;91.50;67.50;;;;;-2.45;88.82;102477.94;3725904;37;18369;-57
2021/02/22 06:16:39;;;;;;;;;83.50;56.25;;;;;-2.47;88.83;102470.03;3725758;37;18406;-57
2021/02/22 06:19:23;;;;;;;;;94.50;67.25;;;;;-2.44;88.74;102477.87;3725727;37;18362;-56
2021/02/22 06:21:52;;;;;;;;;92.00;67.00;;;;;-2.38;88.50;102474.16;3726001;38;18371;-57
2021/02/22 06:24:23;;;;;;;;;101.25;71.00;;;;;-2.31;88.79;102482.75;3725765;37;18367;-56
2021/02/22 06:27:04;;;;;;;;;96.00;67.00;;;;;-2.37;88.86;102476.75;3725731;38;18362;-57
2021/02/22 06:29:33;;;;;;;;;94.25;69.50;;;;;-2.22;88.92;102488.63;3725795;38;18367;-56
2021/02/22 06:32:00;;;;;;;;;99.50;71.00;;;;;-2.15;89.10;102486.63;3725739;37;18367;-56
2021/02/22 06:34:44;;;;;;;;;97.00;71.00;;;;;-2.12;88.99;102492.69;3725855;37;18339;-57
2021/02/22 06:37:37;;;;;;;;;102.00;76.75;;;;;-2.03;88.98;102491.44;3725842;38;18346;-57
2021/02/22 06:40:11;;;;;;;;;105.25;81.00;;;;;-2.00;88.60;102486.91;3725662;37;18358;-55
2021/02/22 06:42:40;;;;;;;;;105.75;74.50;;;;;-2.08;88.88;102464.25;3725520;37;18358;-58
2021/02/22 06:45:14;;;;;;;;;84.50;67.00;;;;;-2.05;88.50;102472.94;3729815;38;18354;-58
2021/02/22 06:47:43;;;;;;;;;89.25;68.00;;;;;-2.02;88.44;102471.97;3725933;37;18331;-56
2021/02/22 06:50:38;;;;;;;;;90.25;64.50;;;;;-1.80;88.65;102494.13;3725938;38;18325;-56
2021/02/22 06:53:05;;;;;;;;;93.00;69.00;;;;;-1.75;88.75;102492.19;3726191;38;18342;-56
2021/02/22 06:55:34;;;;;;;;;101.50;71.25;;;;;-1.89;88.34;102483.84;3726039;37;18354;-57
2021/02/22 06:58:01;;;;;;;;;87.25;66.50;;;;;-1.72;88.37;102497.38;3725915;38;18325;-56
2021/02/22 07:00:28;;;;;;;;;84.75;64.75;;;;;-1.81;88.06;102496.84;3726039;37;18319;-57
2021/02/22 07:02:58;;;;;;;;;91.25;66.00;;;;;-1.67;88.32;102490.09;3726860;37;18325;-58
2021/02/22 07:05:25;;;;;;;;;85.50;65.75;;;;;-1.55;88.81;102478.13;3726293;37;18308;-56
2021/02/22 07:07:57;;;;;;;;;85.25;63.50;;;;;-1.49;88.35;102482.34;3725781;38;18335;-58
2021/02/22 07:10:30;;;;;;;;;84.50;62.50;;;;;-1.50;88.43;102478.81;3725733;37;18305;-57
2021/02/22 07:12:58;;;;;;;;;84.50;63.25;;;;;-1.59;88.09;102480.97;3725813;37;18305;-63
2021/02/22 07:15:25;;;;;;;;;86.50;64.00;;;;;-1.65;88.00;102475.91;3725669;38;18317;-61
2021/02/22 07:17:51;;;;;;;;;76.25;58.75;;;;;-1.63;88.16;102468.75;3725336;38;18310;-57
2021/02/22 07:20:22;;;;;;;;;87.00;64.00;;;;;-1.50;88.39;102462.88;3725639;37;18305;-56
2021/02/22 07:22:54;;;;;;;;;87.50;64.50;;;;;-1.42;88.06;102463.44;3725840;37;18280;-56
2021/02/22 07:25:41;;;;;;;;;86.25;59.25;;;;;-1.38;88.42;102454.44;3725777;37;18324;-56
2021/02/22 07:28:31;;;;;;;;;93.25;67.25;;;;;-1.27;88.59;102456.66;3725897;38;18278;-57
2021/02/22 07:31:08;;;;;;;;;97.25;69.25;;;;;-1.22;88.41;102459.12;3725921;38;18276;-57
2021/02/22 07:33:35;;;;;;;;;86.75;65.50;;;;;-1.29;88.32;102461.19;3725759;38;18295;-57
2021/02/22 07:36:03;;;;;;;;;90.00;64.50;;;;;-1.36;88.22;102463.22;3725832;37;18266;-58
2021/02/22 07:38:31;;;;;;;;;92.00;66.00;;;;;-1.33;88.44;102454.25;3725706;38;18270;-59
2021/02/22 07:41:18;;;;;;;;;94.75;66.25;;;;;-1.27;88.10;102456.66;3725764;37;18284;-56
2021/02/22 07:43:52;;;;;;;;;92.75;63.75;;;;;-1.07;88.16;102455.88;3725695;37;18275;-56
2021/02/22 07:46:39;;;;;;;;;90.00;65.50;;;;;-1.10;88.09;102454.19;3725833;37;18253;-56
2021/02/22 07:49:12;;;;;;;;;91.00;68.25;;;;;-0.97;88.17;102459.00;3725583;38;18280;-57
2021/02/22 07:52:02;;;;;;;;;100.50;73.25;;;;;-0.72;88.38;102446.41;3725732;37;18240;-58
2021/02/22 07:54:30;;;;;;;;;93.50;64.75;;;;;-0.67;88.07;102452.41;3725837;37;18243;-56
2021/02/22 07:57:20;;;;;;;;;97.50;68.75;;;;;-0.48;88.06;102453.31;3725870;37;18237;-57
2021/02/22 07:59:48;;;;;;;;;89.25;67.00;;;;;-0.49;88.09;102450.72;3725686;38;18218;-58
2021/02/22 08:02:14;;;;;;;;;103.50;75.75;;;;;-0.48;87.78;102455.12;3725551;37;18251;-59
2021/02/22 08:05:10;;;;;;;;;93.75;69.75;;;;;-0.44;87.90;102462.91;3725786;38;18239;-57
2021/02/22 08:07:36;;;;;;;;;98.00;71.25;;;;;-0.38;87.50;102459.09;3725864;38;18206;-56
2021/02/22 08:10:05;;;;;;;;;92.75;71.75;;;;;-0.34;87.70;102450.94;3725719;37;18257;-58
2021/02/22 08:12:31;;;;;;;;;103.00;71.00;;;;;-0.19;87.60;102448.53;3725829;37;18220;-61
2021/02/22 08:14:58;;;;;;;;;102.25;76.50;;;;;-0.06;87.76;102444.38;3725755;37;18224;-58
2021/02/22 08:17:37;;;;;;;;;97.25;75.75;;;;;0.05;87.59;102444.75;3726051;37;18221;-57
2021/02/22 08:20:04;;;;;;;;;100.25;76.25;;;;;0.10;87.22;102448.06;3725939;37;18214;-57
2021/02/22 08:22:32;;;;;;;;;95.50;72.00;;;;;0.23;87.17;102449.22;3726000;38;18226;-58
2021/02/22 08:24:58;;;;;;;;;100.75;74.25;;;;;0.31;87.13;102446.22;3725594;38;18285;-58
2021/02/22 08:27:26;;;;;;;;;100.50;81.50;;;;;0.36;87.05;102456.66;3725867;37;18214;-57
2021/02/22 08:29:55;;;;;;;;;103.00;80.25;;;;;0.29;86.63;102453.41;3725781;38;18213;-60
2021/02/22 08:32:22;;;;;;;;;95.75;75.75;;;;;0.26;86.57;102456.22;3725554;38;18225;-57
2021/02/22 08:34:52;;;;;;;;;91.25;66.75;;;;;0.22;86.77;102463.47;3725764;37;18223;-58
2021/02/22 08:37:20;;;;;;;;;97.50;73.00;;;;;0.27;86.63;102463.25;3725663;38;18210;-58
2021/02/22 08:39:54;;;;;;;;;92.50;71.75;;;;;0.38;86.51;102462.78;3725567;38;18227;-57
2021/02/22 08:42:28;;;;;;;;;97.75;75.50;;;;;0.40;86.18;102459.09;3725552;37;18215;-58
2021/02/22 08:44:58;;;;;;;;;92.25;67.50;;;;;0.40;86.11;102448.44;3725868;37;18189;-57
2021/02/22 08:47:35;;;;;;;;;86.75;61.75;;;;;0.40;86.03;102463.56;3725709;37;18193;-60
2021/02/22 08:50:04;;;;;;;;;85.25;62.00;;;;;0.51;86.12;102454.13;3725911;38;18195;-57
2021/02/22 08:52:32;;;;;;;;;83.00;62.00;;;;;0.46;85.80;102453.47;3726230;38;18175;-57
2021/02/22 08:55:01;;;;;;;;;94.50;67.00;;;;;0.60;86.14;102452.81;3725938;38;18174;-58
2021/02/22 08:57:43;;;;;;;;;84.50;63.75;;;;;0.60;85.64;102451.00;3725798;38;18165;-58
2021/02/22 09:00:23;;;;;;;;;101.25;87.00;;;;;0.49;85.58;102449.81;3725702;37;18188;-59
2021/02/22 09:02:57;;;;;;;;;80.25;60.25;;;;;0.50;85.47;102452.41;3725577;37;18169;-59
2021/02/22 09:05:32;;;;;;;;;92.25;67.25;;;;;0.59;85.47;102451.06;3725793;38;18186;-56
2021/02/22 09:08:04;;;;;;;;;80.50;58.25;;;;;0.66;85.24;102457.84;3725596;37;18150;-56
2021/02/22 09:10:50;;;;;;;;;84.75;62.00;;;;;0.72;84.99;102454.88;3725868;38;18144;-58
2021/02/22 09:13:18;;;;;;;;;80.00;62.00;;;;;0.68;85.03;102447.13;3725889;37;18126;-57
2021/02/22 09:15:55;;;;;;;;;89.00;64.25;;;;;0.83;85.13;102459.69;3725883;37;18135;-58
2021/02/22 09:18:22;;;;;;;;;82.75;65.00;;;;;1.01;84.69;102463.28;3725681;37;18131;-58
2021/02/22 09:21:03;;;;;;;;;85.50;61.25;;;;;1.18;85.00;102464.13;3725366;38;18130;-58
2021/02/22 09:23:57;;;;;;;;;80.00;58.75;;;;;1.00;84.29;102465.09;3725693;38;18137;-58
2021/02/22 09:26:43;;;;;;;;;79.50;61.25;;;;;1.14;84.25;102459.03;3725614;37;20528;-59
2021/02/22 09:29:19;;;;;;;;;80.00;59.50;;;;;1.17;84.10;102449.06;3725508;37;20547;-55
2021/02/22 09:32:08;;;;;;;;;80.00;57.50;;;;;1.25;84.07;102454.03;3725585;37;18125;-58
2021/02/22 09:34:45;;;;;;;;;81.75;59.75;;;;;1.33;84.31;102460.72;3725269;38;20542;-58
2021/02/22 09:37:22;;;;;;;;;86.50;63.00;;;;;1.37;84.45;102458.75;3725613;37;20546;-55
2021/02/22 09:39:50;;;;;;;;;81.50;61.00;;;;;1.37;83.72;102456.09;3725411;37;20525;-58
2021/02/22 09:42:21;;;;;;;;;82.50;56.50;;;;;1.53;84.13;102457.03;3725632;37;18106;-57
2021/02/22 09:45:11;;;;;;;;;81.50;59.75;;;;;1.69;84.02;102458.88;3725535;37;20513;-57
2021/02/22 09:47:40;;;;;;;;;76.75;57.25;;;;;1.71;83.36;102457.00;3726036;37;20478;-59
2021/02/22 09:50:18;;;;;;;;;82.25;58.75;;;;;1.82;83.55;102460.84;3725648;37;20516;-58
2021/02/22 09:52:47;;;;;;;;;81.00;61.50;;;;;1.88;83.36;102456.97;3725862;37;20572;-57
2021/02/22 09:55:21;;;;;;;;;83.00;58.50;;;;;1.89;83.23;102448.03;3725924;37;20495;-59
2021/02/22 09:58:05;;;;;;;;;81.50;61.50;;;;;1.97;82.90;102451.16;3725868;37;20484;-58
2021/02/22 10:00:37;;;;;;;;;85.00;61.25;;;;;2.06;82.78;102457.81;3725726;37;20489;-56
2021/02/22 10:03:14;;;;;;;;;81.50;59.25;;;;;1.84;82.73;102461.63;3725888;37;18091;-56
2021/02/22 10:05:44;;;;;;;;;84.25;60.00;;;;;1.51;82.56;102453.56;3726013;37;20495;-59
2021/02/22 10:08:15;;;;;;;;;83.00;60.75;;;;;1.62;83.12;102463.66;3725861;37;20512;-57
2021/02/22 10:10:44;;;;;;;;;85.50;61.25;;;;;1.72;83.02;102454.25;3726253;37;20461;-57
2021/02/22 10:13:11;;;;;;;;;81.75;60.00;;;;;1.90;83.30;102442.59;3725864;37;18062;-56
2021/02/22 10:15:48;;;;;;;;;92.75;64.50;;;;;1.92;83.11;102443.37;3726226;38;18054;-58
2021/02/22 10:18:15;;;;;;;;;78.25;60.25;;;;;1.88;83.33;102440.97;3726185;37;18058;-57
2021/02/22 10:20:41;;;;;;;;;87.50;60.50;;;;;1.74;82.67;102446.16;3726113;38;18056;-56
2021/02/22 10:23:08;;;;;;;;;85.50;61.00;;;;;1.64;82.89;102435.97;3725812;38;20472;-58
2021/02/22 10:25:36;;;;;;;;;91.75;63.00;;;;;1.85;83.25;102441.13;3725878;37;20481;-58
2021/02/22 10:28:06;;;;;;;;;87.50;63.75;;;;;1.99;82.99;102425.22;3726016;37;20467;-56
2021/02/22 10:30:33;;;;;;;;;83.00;58.00;;;;;2.03;82.96;102429.47;3725752;38;20433;-58
2021/02/22 10:33:01;;;;;;;;;81.50;58.00;;;;;1.85;82.54;102427.78;3725950;38;20462;-59
2021/02/22 10:35:29;;;;;;;;;78.50;58.00;;;;;1.78;82.64;102426.37;3725627;38;20459;-58
2021/02/22 10:37:57;;;;;;;;;87.25;63.75;;;;;1.62;82.67;102429.84;3725719;38;20463;-61
2021/02/22 10:40:24;;;;;;;;;79.25;60.50;;;;;1.53;82.77;102413.47;3725887;37;18003;-58
2021/02/22 10:42:50;;;;;;;;;88.50;65.75;;;;;1.81;83.04;102418.19;3725813;37;20440;-60
2021/02/22 10:45:17;;;;;;;;;75.00;56.75;;;;;2.03;82.67;102421.44;3725804;37;18035;-58
2021/02/22 10:47:43;;;;;;;;;82.75;62.50;;;;;2.21;82.80;102409.75;3725722;38;18029;-59
2021/02/22 10:50:12;;;;;;;;;83.25;59.75;;;;;2.36;82.38;102413.37;3725687;38;20419;-59
2021/02/22 10:52:50;;;;;;;;;86.75;63.50;;;;;2.17;82.17;102413.53;3725897;38;20419;-58
2021/02/22 10:55:16;;;;;;;;;80.25;60.75;;;;;2.20;81.63;102405.34;3725762;37;20405;-58
2021/02/22 10:57:46;;;;;;;;;81.75;61.25;;;;;2.35;82.17;102400.09;3725864;37;20424;-57
2021/02/22 11:00:16;;;;;;;;;82.75;61.75;;;;;2.45;81.85;102404.00;3725914;38;20404;-59
2021/02/22 11:02:47;;;;;;;;;84.00;59.50;;;;;2.24;81.07;102385.53;3725983;38;20416;-56
2021/02/22 11:05:16;;;;;;;;;82.25;61.50;;;;;2.29;81.30;102393.28;3725845;37;20412;-57
2021/02/22 11:07:43;;;;;;;;;79.75;60.25;;;;;2.34;81.23;102396.56;3725638;37;20422;-56
2021/02/22 11:10:12;;;;;;;;;73.50;55.75;;;;;2.27;81.07;102390.69;3725474;38;20392;-57
2021/02/22 11:12:40;;;;;;;;;77.00;56.00;;;;;2.29;81.01;102393.28;3725818;37;20420;-57
2021/02/22 11:15:08;;;;;;;;;78.25;58.00;;;;;2.10;80.81;102395.25;3725642;37;20391;-55
2021/02/22 11:17:35;;;;;;;;;86.50;58.50;;;;;2.25;81.67;102386.37;3725506;38;20383;-61
2021/02/22 11:20:01;;;;;;;;;74.75;59.00;;;;;2.36;81.49;102386.66;3725943;37;20387;-61